createdAt,value
2022-10-11T00:01:19.822Z,1.93
2022-10-11T00:03:46.322Z,2.07
2022-10-11T00:06:12.816Z,2.13
2022-10-11T00:08:39.310Z,2.40
2022-10-11T00:11:07.462Z,1.93
2022-10-11T00:13:34.456Z,2.77
2022-10-11T00:16:01.153Z,2.17
2022-10-11T00:18:27.856Z,2.77
2022-10-11T00:21:05.268Z,2.33
2022-10-11T00:23:32.472Z,2.40
2022-10-11T00:26:00.845Z,2.70
2022-10-11T00:28:27.953Z,2.50
2022-10-11T00:30:54.518Z,2.90
2022-10-11T00:33:21.211Z,2.57
2022-10-11T00:35:48.839Z,2.93
2022-10-11T00:38:16.097Z,2.60
2022-10-11T00:40:42.911Z,3.07
2022-10-11T00:43:16.451Z,2.83
2022-10-11T00:45:58.088Z,3.67
2022-10-11T00:48:31.069Z,3.07
2022-10-11T00:50:59.979Z,2.93
2022-10-11T00:53:30.427Z,3.30
2022-10-11T00:56:05.466Z,2.93
2022-10-11T00:58:35.095Z,3.53
2022-10-11T01:01:02.071Z,2.80
2022-10-11T01:03:31.726Z,2.67
2022-10-11T01:05:58.368Z,2.60
2022-10-11T01:08:25.777Z,2.90
2022-10-11T01:10:52.516Z,3.30
2022-10-11T01:13:24.631Z,3.30
2022-10-11T01:16:04.878Z,2.73
2022-10-11T01:18:38.441Z,2.77
2022-10-11T01:21:13.757Z,3.00
2022-10-11T01:23:49.011Z,2.93
2022-10-11T01:26:40.578Z,2.67
2022-10-11T01:29:37.114Z,3.40
2022-10-11T01:32:15.352Z,2.60
2022-10-11T01:34:52.253Z,3.00
2022-10-11T01:37:37.046Z,3.23
2022-10-11T01:40:11.617Z,3.03
2022-10-11T01:42:40.323Z,2.63
2022-10-11T01:45:15.545Z,2.50
2022-10-11T01:47:42.676Z,2.83
2022-10-11T01:50:40.118Z,2.80
2022-10-11T01:53:12.690Z,2.40
2022-10-11T01:56:02.382Z,2.60
2022-10-11T01:58:47.395Z,3.00
2022-10-11T02:01:34.721Z,3.00
2022-10-11T02:04:12.190Z,2.67
2022-10-11T02:06:38.989Z,2.60
2022-10-11T02:09:43.897Z,2.83
2022-10-11T02:12:13.198Z,2.80
2022-10-11T02:14:44.462Z,2.80
2022-10-11T02:17:16.866Z,2.67
2022-10-11T02:19:51.799Z,2.60
2022-10-11T02:22:32.986Z,2.37
2022-10-11T02:25:05.329Z,2.70
2022-10-11T02:27:35.842Z,2.50
2022-10-11T02:30:05.086Z,2.57
2022-10-11T02:32:33.031Z,2.50
2022-10-11T02:35:02.090Z,2.60
2022-10-11T02:37:54.934Z,2.50
2022-10-11T02:40:28.028Z,2.47
2022-10-11T02:43:01.388Z,2.43
2022-10-11T02:45:33.795Z,2.67
2022-10-11T02:48:01.022Z,2.63
2022-10-11T02:50:28.043Z,3.00
2022-10-11T02:52:54.570Z,2.47
2022-10-11T02:55:21.306Z,1.87
2022-10-11T02:57:47.834Z,2.20
2022-10-11T03:00:15.323Z,2.40
2022-10-11T03:02:41.914Z,2.40
2022-10-11T03:05:09.117Z,2.27
2022-10-11T03:07:35.709Z,2.30
2022-10-11T03:10:02.467Z,2.37
2022-10-11T03:12:28.977Z,2.23
2022-10-11T03:14:55.568Z,2.40
2022-10-11T03:17:36.127Z,2.17
2022-10-11T03:20:04.891Z,2.40
2022-10-11T03:22:31.450Z,2.93
2022-10-11T03:25:03.376Z,3.03
2022-10-11T03:27:30.532Z,2.67
2022-10-11T03:29:57.813Z,2.70
2022-10-11T03:32:24.482Z,3.03
2022-10-11T03:34:50.979Z,2.80
2022-10-11T03:37:17.671Z,2.37
2022-10-11T03:39:45.648Z,2.87
2022-10-11T03:42:13.559Z,2.30
2022-10-11T03:44:41.701Z,2.23
2022-10-11T03:47:08.996Z,2.00
2022-10-11T03:49:37.727Z,3.00
2022-10-11T03:52:07.930Z,1.97
2022-10-11T03:54:34.434Z,2.90
2022-10-11T03:57:01.326Z,2.20
2022-10-11T03:59:28.210Z,2.20
2022-10-11T04:01:54.770Z,2.30
2022-10-11T04:04:21.353Z,1.77
2022-10-11T04:06:47.873Z,2.37
2022-10-11T04:09:14.378Z,2.10
2022-10-11T04:11:40.897Z,2.67
2022-10-11T04:14:07.388Z,2.10
2022-10-11T04:16:35.255Z,2.57
2022-10-11T04:19:01.754Z,2.10
2022-10-11T04:21:28.256Z,2.13
2022-10-11T04:23:54.851Z,2.77
2022-10-11T04:26:21.533Z,2.20
2022-10-11T04:28:48.142Z,1.90
2022-10-11T04:31:14.846Z,2.27
2022-10-11T04:33:41.509Z,2.63
2022-10-11T04:36:08.748Z,2.57
2022-10-11T04:38:35.672Z,2.00
2022-10-11T04:41:10.029Z,2.30
2022-10-11T04:43:36.833Z,2.50
2022-10-11T04:46:04.057Z,2.20
2022-10-11T04:48:31.119Z,2.70
2022-10-11T04:50:57.729Z,2.07
2022-10-11T04:53:24.340Z,2.20
2022-10-11T04:56:02.884Z,2.70
2022-10-11T04:58:30.937Z,2.80
2022-10-11T05:00:57.793Z,3.07
2022-10-11T05:03:25.023Z,2.33
2022-10-11T05:05:52.891Z,2.50
2022-10-11T05:08:20.389Z,2.80
2022-10-11T05:11:01.235Z,2.87
2022-10-11T05:13:28.934Z,2.70
2022-10-11T05:15:55.480Z,2.97
2022-10-11T05:18:22.723Z,2.80
2022-10-11T05:20:50.394Z,2.57
2022-10-11T05:23:16.895Z,2.90
2022-10-11T05:25:43.431Z,3.10
2022-10-11T05:28:10.027Z,3.30
2022-10-11T05:30:36.559Z,2.63
2022-10-11T05:33:03.235Z,3.00
2022-10-11T05:35:29.779Z,2.43
2022-10-11T05:37:56.367Z,2.80
2022-10-11T05:40:22.892Z,2.93
2022-10-11T05:42:49.404Z,3.27
2022-10-11T05:45:15.914Z,3.33
2022-10-11T05:47:42.429Z,3.17
2022-10-11T05:50:09.390Z,3.27
2022-10-11T05:52:35.895Z,2.60
2022-10-11T05:55:03.398Z,3.30
2022-10-11T05:57:29.936Z,3.23
2022-10-11T05:59:56.690Z,3.00
2022-10-11T06:02:23.219Z,2.83
2022-10-11T06:04:49.709Z,3.20
2022-10-11T06:07:16.241Z,3.30
2022-10-11T06:09:42.733Z,3.00
2022-10-11T06:12:09.253Z,3.70
2022-10-11T06:14:36.014Z,3.20
2022-10-11T06:17:02.546Z,3.13
2022-10-11T06:19:29.051Z,2.83
2022-10-11T06:21:55.588Z,3.17
2022-10-11T06:24:22.215Z,3.43
2022-10-11T06:26:49.308Z,2.60
2022-10-11T06:29:15.967Z,2.60
2022-10-11T06:31:42.586Z,3.03
2022-10-11T06:34:09.555Z,2.70
2022-10-11T06:36:36.243Z,2.50
2022-10-11T06:39:03.073Z,2.83
2022-10-11T06:41:30.873Z,2.80
2022-10-11T06:43:57.907Z,2.70
2022-10-11T06:46:26.157Z,3.30
2022-10-11T06:48:53.945Z,3.33
2022-10-11T06:51:21.960Z,3.43
2022-10-11T06:53:56.739Z,3.23
2022-10-11T06:56:23.777Z,3.23
2022-10-11T06:58:51.292Z,2.60
2022-10-11T07:01:20.355Z,3.10
2022-10-11T07:03:48.299Z,3.80
2022-10-11T07:06:18.177Z,4.30
2022-10-11T07:08:45.040Z,3.10
2022-10-11T07:11:14.896Z,3.37
2022-10-11T07:13:41.998Z,3.63
2022-10-11T07:16:11.886Z,3.37
2022-10-11T07:18:39.074Z,3.37
2022-10-11T07:21:08.251Z,3.03
2022-10-11T07:23:34.982Z,3.67
2022-10-11T07:26:01.734Z,3.80
2022-10-11T07:28:30.587Z,3.23
2022-10-11T07:30:58.484Z,4.13
2022-10-11T07:33:25.281Z,3.13
2022-10-11T07:35:51.893Z,4.20
2022-10-11T07:38:18.452Z,3.60
2022-10-11T07:40:46.485Z,4.13
2022-10-11T07:43:13.917Z,3.40
2022-10-11T07:45:41.852Z,3.00
2022-10-11T07:48:08.943Z,2.63
2022-10-11T07:51:05.298Z,3.17
2022-10-11T07:53:31.983Z,2.93
2022-10-11T07:56:02.675Z,2.67
2022-10-11T07:58:29.512Z,2.80
2022-10-11T08:00:56.071Z,3.20
2022-10-11T08:03:22.877Z,2.97
2022-10-11T08:05:49.461Z,2.93
2022-10-11T08:08:16.016Z,2.90
2022-10-11T08:10:42.523Z,2.70
2022-10-11T08:13:09.045Z,3.17
2022-10-11T08:15:35.664Z,2.83
2022-10-11T08:18:02.189Z,2.53
2022-10-11T08:20:31.108Z,2.47
2022-10-11T08:22:57.833Z,2.93
2022-10-11T08:25:24.425Z,2.63
2022-10-11T08:27:50.936Z,3.17
2022-10-11T08:30:17.575Z,2.73
2022-10-11T08:32:44.126Z,2.93
2022-10-11T08:35:10.618Z,3.33
2022-10-11T08:37:37.260Z,3.70
2022-10-11T08:40:05.913Z,3.53
2022-10-11T08:42:41.599Z,4.70
2022-10-11T08:45:16.931Z,3.80
2022-10-11T08:47:45.314Z,3.57
2022-10-11T08:50:19.880Z,2.70
2022-10-11T08:52:52.578Z,2.93
2022-10-11T08:55:26.339Z,3.03
2022-10-11T08:57:56.346Z,2.50
2022-10-11T09:00:25.212Z,2.73
2022-10-11T09:03:19.532Z,2.50
2022-10-11T09:05:55.945Z,2.50
2022-10-11T09:08:53.342Z,2.43
2022-10-11T09:11:46.870Z,2.57
2022-10-11T09:14:51.142Z,2.70
2022-10-11T09:17:26.219Z,3.30
2022-10-11T09:20:11.645Z,3.00
2022-10-11T09:22:55.152Z,2.67
2022-10-11T09:25:30.415Z,2.57
2022-10-11T09:28:03.817Z,2.77
2022-10-11T09:30:30.686Z,2.87
2022-10-11T09:33:13.446Z,2.47
2022-10-11T09:35:44.471Z,3.13
2022-10-11T09:38:38.611Z,2.77
2022-10-11T09:41:14.633Z,2.80
2022-10-11T09:43:44.981Z,2.73
2022-10-11T09:46:34.195Z,3.13
2022-10-11T09:49:04.219Z,2.93
2022-10-11T09:51:31.353Z,3.27
2022-10-11T09:53:57.892Z,3.63
2022-10-11T09:56:26.402Z,3.13
2022-10-11T09:59:14.695Z,2.90
2022-10-11T10:01:41.291Z,2.90
2022-10-11T10:04:11.475Z,3.07
2022-10-11T10:06:40.059Z,2.60
2022-10-11T10:09:26.912Z,2.43
2022-10-11T10:11:55.568Z,2.93
2022-10-11T10:14:30.525Z,3.30
2022-10-11T10:17:14.626Z,2.60
2022-10-11T10:19:49.323Z,2.93
2022-10-11T10:22:20.631Z,2.97
2022-10-11T10:24:49.264Z,3.03
2022-10-11T10:27:21.175Z,2.73
2022-10-11T10:30:03.136Z,3.33
2022-10-11T10:32:47.562Z,2.63
2022-10-11T10:35:24.036Z,2.90
2022-10-11T10:37:56.715Z,2.70
2022-10-11T10:40:28.984Z,3.40
2022-10-11T10:42:55.503Z,2.57
2022-10-11T10:45:29.435Z,3.07
2022-10-11T10:48:09.307Z,2.93
2022-10-11T10:50:52.546Z,2.53
2022-10-11T10:53:37.639Z,2.87
2022-10-11T10:56:19.017Z,2.57
2022-10-11T10:59:30.586Z,2.80
2022-10-11T11:02:40.805Z,2.53
2022-10-11T11:05:48.423Z,3.07
2022-10-11T11:08:30.157Z,2.70
2022-10-11T11:11:08.631Z,2.73
2022-10-11T11:13:48.477Z,2.47
2022-10-11T11:16:20.972Z,2.57
2022-10-11T11:19:02.983Z,2.37
2022-10-11T11:21:41.765Z,3.33
2022-10-11T11:24:44.143Z,2.90
2022-10-11T11:27:31.281Z,3.30
2022-10-11T11:30:10.206Z,3.47
2022-10-11T11:32:48.723Z,2.67
2022-10-11T11:35:17.991Z,2.90
2022-10-11T11:37:48.271Z,2.93
2022-10-11T11:40:27.168Z,2.63
2022-10-11T11:43:00.940Z,2.90
2022-10-11T11:45:37.480Z,2.90
2022-10-11T11:48:13.377Z,3.30
2022-10-11T11:50:46.245Z,2.93
2022-10-11T11:53:22.854Z,2.80
2022-10-11T11:55:59.130Z,2.57
2022-10-11T11:58:38.923Z,2.40
2022-10-11T12:01:36.046Z,2.83
2022-10-11T12:04:08.695Z,2.53
2022-10-11T12:06:47.674Z,2.90
2022-10-11T12:09:23.602Z,2.67
2022-10-11T12:11:57.291Z,3.30
2022-10-11T12:14:43.983Z,2.57
2022-10-11T12:17:16.374Z,2.83
2022-10-11T12:20:02.270Z,2.50
2022-10-11T12:22:28.927Z,3.30
2022-10-11T12:24:57.159Z,4.03
2022-10-11T12:27:57.071Z,2.40
2022-10-11T12:30:48.640Z,2.50
2022-10-11T12:33:26.127Z,2.60
2022-10-11T12:35:55.552Z,3.07
2022-10-11T12:38:25.134Z,2.50
2022-10-11T12:41:03.084Z,2.50
2022-10-11T12:43:36.370Z,2.60
2022-10-11T12:46:33.647Z,2.63
2022-10-11T12:49:36.273Z,2.00
2022-10-11T12:52:05.080Z,2.40
2022-10-11T12:55:29.799Z,2.53
2022-10-11T12:58:30.557Z,2.40
2022-10-11T13:00:57.896Z,2.17
2022-10-11T13:03:42.697Z,2.23
2022-10-11T13:06:15.338Z,2.00
2022-10-11T13:08:45.144Z,2.10
2022-10-11T13:11:19.079Z,2.17
2022-10-11T13:13:52.263Z,2.23
2022-10-11T13:16:22.400Z,2.50
2022-10-11T13:18:53.802Z,2.17
2022-10-11T13:21:28.370Z,2.70
2022-10-11T13:23:58.976Z,2.30
2022-10-11T13:26:28.258Z,1.70
2022-10-11T13:28:55.594Z,2.20
2022-10-11T13:31:24.207Z,2.07
2022-10-11T13:33:57.288Z,1.80
2022-10-11T13:36:26.827Z,2.17
2022-10-11T13:38:59.192Z,2.20
2022-10-11T13:41:30.626Z,2.33
2022-10-11T13:43:59.096Z,2.03
2022-10-11T13:46:27.996Z,2.23
2022-10-11T13:49:06.795Z,1.80
2022-10-11T13:51:37.743Z,1.73
2022-10-11T13:54:09.469Z,2.17
2022-10-11T13:56:47.481Z,2.00
2022-10-11T13:59:23.001Z,2.13
2022-10-11T14:01:55.290Z,2.33
2022-10-11T14:04:24.101Z,2.10
2022-10-11T14:06:56.681Z,1.90
2022-10-11T14:09:30.892Z,2.00
2022-10-11T14:12:28.239Z,1.97
2022-10-11T14:14:54.816Z,1.60
2022-10-11T14:17:32.555Z,2.00
2022-10-11T14:20:11.900Z,1.70
2022-10-11T14:22:39.023Z,1.70
2022-10-11T14:25:05.942Z,1.90
2022-10-11T14:27:32.750Z,2.00
2022-10-11T14:30:25.200Z,1.70
2022-10-11T14:32:49.113Z,1.77
2022-10-11T14:35:23.332Z,2.17
2022-10-11T14:37:50.282Z,2.40
2022-10-11T14:40:20.680Z,1.83
2022-10-11T14:42:47.789Z,1.97
2022-10-11T14:45:14.336Z,2.10
2022-10-11T14:47:43.122Z,1.90
2022-10-11T14:50:54.363Z,1.93
2022-10-11T14:53:21.164Z,2.50
2022-10-11T14:55:48.300Z,2.27
2022-10-11T14:58:16.706Z,2.17
2022-10-11T15:00:43.720Z,1.80
2022-10-11T15:03:10.447Z,2.17
2022-10-11T15:05:37.348Z,2.27
2022-10-11T15:08:05.846Z,1.77
2022-10-11T15:10:40.433Z,2.60
2022-10-11T15:13:08.240Z,1.93
2022-10-11T15:15:40.646Z,2.03
2022-10-11T15:18:12.292Z,1.90
2022-10-11T15:20:42.610Z,1.73
2022-10-11T15:23:10.567Z,2.20
2022-10-11T15:25:38.906Z,2.07
2022-10-11T15:28:06.731Z,2.20
2022-10-11T15:30:40.961Z,2.43
2022-10-11T15:33:08.126Z,3.10
2022-10-11T15:35:34.617Z,2.37
2022-10-11T15:38:01.198Z,2.33
2022-10-11T15:40:35.815Z,2.70
2022-10-11T15:43:03.756Z,2.33
2022-10-11T15:45:30.462Z,1.93
2022-10-11T15:47:57.169Z,2.33
2022-10-11T15:50:36.811Z,2.13
2022-10-11T15:53:05.698Z,2.00
2022-10-11T15:55:34.021Z,2.37
2022-10-11T15:58:04.174Z,2.23
2022-10-11T16:00:30.797Z,1.93
2022-10-11T16:02:59.211Z,2.43
2022-10-11T16:05:27.919Z,1.80
2022-10-11T16:07:54.936Z,2.50
2022-10-11T16:10:21.650Z,2.17
2022-10-11T16:12:48.289Z,2.07
2022-10-11T16:15:15.528Z,2.20
2022-10-11T16:17:42.123Z,2.27
2022-10-11T16:20:09.090Z,2.20
2022-10-11T16:22:36.009Z,1.87
2022-10-11T16:25:04.618Z,1.87
2022-10-11T16:27:31.289Z,1.87
2022-10-11T16:29:58.236Z,2.17
2022-10-11T16:32:25.446Z,2.03
2022-10-11T16:34:51.990Z,2.60
2022-10-11T16:37:19.012Z,1.80
2022-10-11T16:39:45.936Z,2.60
2022-10-11T16:42:12.500Z,2.63
2022-10-11T16:44:39.381Z,2.63
2022-10-11T16:47:06.625Z,2.30
2022-10-11T16:49:33.566Z,2.97
2022-10-11T16:52:02.276Z,2.63
2022-10-11T16:54:30.298Z,2.97
2022-10-11T16:56:57.862Z,3.10
2022-10-11T16:59:24.623Z,3.30
2022-10-11T17:01:51.517Z,2.80
2022-10-11T17:04:18.299Z,3.00
2022-10-11T17:06:44.955Z,2.60
2022-10-11T17:09:11.926Z,2.83
2022-10-11T17:11:38.487Z,2.93
2022-10-11T17:14:06.189Z,2.53
2022-10-11T17:16:32.897Z,2.87
2022-10-11T17:18:59.577Z,2.60
2022-10-11T17:21:26.085Z,2.37
2022-10-11T17:23:53.180Z,2.67
2022-10-11T17:26:27.734Z,2.60
2022-10-11T17:28:55.922Z,3.10
2022-10-11T17:31:23.937Z,2.57
2022-10-11T17:33:51.215Z,2.87
2022-10-11T17:36:25.190Z,2.23
2022-10-11T17:38:52.323Z,3.00
2022-10-11T17:41:19.312Z,2.93
2022-10-11T17:43:46.735Z,2.80
2022-10-11T17:46:14.883Z,2.57
2022-10-11T17:48:41.878Z,2.67
2022-10-11T17:51:15.417Z,3.03
2022-10-11T17:53:42.088Z,3.37
2022-10-11T17:56:12.029Z,2.63
2022-10-11T17:58:39.180Z,2.83
2022-10-11T18:01:09.777Z,2.90
2022-10-11T18:03:36.803Z,2.37
2022-10-11T18:06:08.209Z,2.53
2022-10-11T18:08:40.221Z,2.53
2022-10-11T18:11:19.790Z,2.30
2022-10-11T18:13:51.546Z,2.50
2022-10-11T18:16:23.035Z,2.13
2022-10-11T18:18:49.997Z,2.37
2022-10-11T18:21:18.424Z,2.07
2022-10-11T18:23:45.782Z,1.90
2022-10-11T18:26:15.347Z,2.30
2022-10-11T18:28:43.053Z,1.90
2022-10-11T18:31:15.868Z,2.10
2022-10-11T18:33:45.534Z,1.80
2022-10-11T18:36:16.558Z,2.20
2022-10-11T18:38:46.704Z,1.53
2022-10-11T18:41:20.048Z,2.00
2022-10-11T18:43:55.234Z,2.00
2022-10-11T18:46:23.238Z,1.87
2022-10-11T18:48:52.214Z,1.90
2022-10-11T18:51:20.422Z,2.13
2022-10-11T18:53:47.688Z,2.00
2022-10-11T18:56:16.049Z,2.17
2022-10-11T18:58:44.746Z,2.30
2022-10-11T19:01:16.013Z,1.97
2022-10-11T19:03:43.740Z,1.90
2022-10-11T19:06:17.199Z,1.70
2022-10-11T19:08:48.385Z,2.50
2022-10-11T19:11:16.508Z,2.60
2022-10-11T19:13:43.902Z,2.10
2022-10-11T19:16:13.568Z,2.27
2022-10-11T19:18:44.303Z,1.90
2022-10-11T19:21:13.145Z,1.70
2022-10-11T19:23:44.277Z,2.47
2022-10-11T19:26:15.224Z,1.97
2022-10-11T19:28:42.511Z,2.00
2022-10-11T19:31:13.095Z,2.03
2022-10-11T19:33:39.723Z,2.00
2022-10-11T19:36:06.962Z,1.77
2022-10-11T19:38:35.079Z,2.03
2022-10-11T19:41:03.028Z,2.47
2022-10-11T19:43:29.602Z,2.40
2022-10-11T19:46:08.377Z,2.80
2022-10-11T19:48:39.298Z,2.63
2022-10-11T19:51:12.148Z,3.27
2022-10-11T19:53:38.803Z,3.27
2022-10-11T19:56:09.447Z,3.07
2022-10-11T19:58:36.000Z,3.37
2022-10-11T20:01:08.261Z,2.70
2022-10-11T20:03:35.100Z,3.70
2022-10-11T20:06:07.467Z,2.87
2022-10-11T20:08:35.750Z,2.73
2022-10-11T20:11:05.531Z,3.20
2022-10-11T20:13:34.998Z,3.13
2022-10-11T20:16:13.783Z,3.20
2022-10-11T20:18:41.310Z,2.90
2022-10-11T20:21:13.067Z,3.10
2022-10-11T20:26:21.175Z,3.30
2022-10-11T20:28:54.994Z,3.37
2022-10-11T20:31:28.228Z,2.90
2022-10-11T20:33:57.320Z,3.23
2022-10-11T20:36:26.749Z,3.37
2022-10-11T20:38:53.312Z,2.97
2022-10-11T20:41:28.367Z,3.20
2022-10-11T20:43:57.226Z,2.90
2022-10-11T20:46:28.035Z,2.50
2022-10-11T20:49:01.291Z,2.83
2022-10-11T20:51:32.742Z,2.57
2022-10-11T20:54:00.953Z,2.90
2022-10-11T20:56:28.534Z,2.80
2022-10-11T20:58:56.301Z,3.00
2022-10-11T21:01:28.715Z,3.00
2022-10-11T21:03:59.274Z,2.97
2022-10-11T21:06:27.208Z,2.63
2022-10-11T21:08:59.068Z,3.00
2022-10-11T21:11:31.460Z,2.63
2022-10-11T21:14:00.243Z,2.97
2022-10-11T21:16:27.375Z,3.13
2022-10-11T21:18:57.399Z,2.70
2022-10-11T21:21:25.231Z,3.30
2022-10-11T21:24:00.724Z,2.80
2022-10-11T21:26:28.729Z,2.97
2022-10-11T21:28:55.596Z,2.57
2022-10-11T21:31:23.189Z,2.80
2022-10-11T21:33:49.804Z,2.63
2022-10-11T21:36:21.519Z,2.60
2022-10-11T21:38:49.050Z,2.90
2022-10-11T21:41:18.471Z,2.70
2022-10-11T21:43:45.733Z,2.30
2022-10-11T21:46:15.926Z,2.73
2022-10-11T21:48:42.457Z,2.20
2022-10-11T21:51:15.246Z,2.40
2022-10-11T21:53:41.831Z,2.50
2022-10-11T21:56:08.707Z,2.53
2022-10-11T21:58:35.230Z,2.50
2022-10-11T22:01:01.759Z,2.50
2022-10-11T22:03:28.282Z,2.10
2022-10-11T22:05:54.844Z,2.60
2022-10-11T22:08:21.404Z,2.10
2022-10-11T22:10:57.317Z,2.20
2022-10-11T22:13:24.847Z,2.70
2022-10-11T22:15:51.524Z,2.30
2022-10-11T22:18:18.072Z,2.60
2022-10-11T22:20:44.687Z,3.10
2022-10-11T22:23:11.699Z,2.80
2022-10-11T22:25:39.084Z,2.60
2022-10-11T22:28:06.669Z,3.00
2022-10-11T22:30:33.731Z,2.80
2022-10-11T22:33:00.246Z,3.00
2022-10-11T22:35:26.902Z,2.67
2022-10-11T22:37:53.471Z,2.83
2022-10-11T22:40:20.252Z,2.60
2022-10-11T22:42:46.871Z,2.77
2022-10-11T22:45:13.475Z,2.70
2022-10-11T22:47:39.950Z,2.80
2022-10-11T22:50:06.683Z,2.63
2022-10-11T22:52:33.163Z,2.20
2022-10-11T22:54:59.674Z,2.20
2022-10-11T22:57:26.163Z,2.20
2022-10-11T22:59:52.709Z,2.30
2022-10-11T23:02:19.201Z,2.33
2022-10-11T23:04:45.727Z,2.60
2022-10-11T23:07:12.252Z,2.67
2022-10-11T23:09:38.774Z,2.50
2022-10-11T23:12:05.556Z,2.50
2022-10-11T23:14:32.100Z,2.10
2022-10-11T23:16:58.617Z,2.20
2022-10-11T23:19:25.177Z,1.97
2022-10-11T23:21:51.724Z,2.00
2022-10-11T23:24:18.281Z,2.03
2022-10-11T23:26:44.759Z,1.97
2022-10-11T23:29:11.317Z,2.20
2022-10-11T23:31:37.801Z,2.30
2022-10-11T23:34:04.342Z,2.43
2022-10-11T23:36:30.844Z,2.10
2022-10-11T23:38:58.684Z,2.37
2022-10-11T23:41:28.878Z,2.50
2022-10-11T23:43:56.003Z,2.37
2022-10-11T23:46:22.671Z,2.27
2022-10-11T23:48:49.221Z,2.60
2022-10-11T23:51:16.597Z,2.43
2022-10-11T23:53:43.097Z,2.20
2022-10-11T23:56:11.321Z,2.50
2022-10-11T23:58:38.100Z,2.30
